sensor_id;sensor_type;location;lat;lon;timestamp;temperature;humidity
43627;DHT22;29217;52.586;13.442;2022-09-03T00:01:13;12.50;99.90
43627;DHT22;29217;52.586;13.442;2022-09-03T00:03:48;12.50;99.90
43627;DHT22;29217;52.586;13.442;2022-09-03T00:06:25;12.50;99.90
43627;DHT22;29217;52.586;13.442;2022-09-03T00:09:12;12.50;99.90
43627;DHT22;29217;52.586;13.442;2022-09-03T00:11:51;12.50;99.90
43627;DHT22;29217;52.586;13.442;2022-09-03T00:14:25;12.40;99.90
43627;DHT22;29217;52.586;13.442;2022-09-03T00:16:56;12.40;99.90
43627;DHT22;29217;52.586;13.442;2022-09-03T00:19:36;12.40;99.90
43627;DHT22;29217;52.586;13.442;2022-09-03T00:22:16;12.40;99.90
43627;DHT22;29217;52.586;13.442;2022-09-03T00:24:44;12.40;99.90
43627;DHT22;29217;52.586;13.442;2022-09-03T00:27:36;12.40;99.90
43627;DHT22;29217;52.586;13.442;2022-09-03T00:30:12;12.40;99.90
43627;DHT22;29217;52.586;13.442;2022-09-03T00:33:00;12.40;99.90
43627;DHT22;29217;52.586;13.442;2022-09-03T00:35:48;12.40;99.90
43627;DHT22;29217;52.586;13.442;2022-09-03T00:38:14;12.40;99.90
43627;DHT22;29217;52.586;13.442;2022-09-03T00:40:59;12.30;99.90
43627;DHT22;29217;52.586;13.442;2022-09-03T00:49:11;12.30;99.90
43627;DHT22;29217;52.586;13.442;2022-09-03T00:57:27;12.30;99.90
43627;DHT22;29217;52.586;13.442;2022-09-03T01:00:10;12.20;99.90
43627;DHT22;29217;52.586;13.442;2022-09-03T01:05:46;12.20;99.90
43627;DHT22;29217;52.586;13.442;2022-09-03T01:13:40;12.10;99.90
43627;DHT22;29217;52.586;13.442;2022-09-03T01:27:05;12.00;99.90
43627;DHT22;29217;52.586;13.442;2022-09-03T01:35:37;11.90;99.90
43627;DHT22;29217;52.586;13.442;2022-09-03T01:44:30;11.70;99.90
43627;DHT22;29217;52.586;13.442;2022-09-03T01:50:12;11.70;99.90
43627;DHT22;29217;52.586;13.442;2022-09-03T01:58:38;11.60;99.90
43627;DHT22;29217;52.586;13.442;2022-09-03T02:01:14;11.70;99.90
43627;DHT22;29217;52.586;13.442;2022-09-03T02:03:43;11.50;99.90
43627;DHT22;29217;52.586;13.442;2022-09-03T02:06:10;11.50;99.90
43627;DHT22;29217;52.586;13.442;2022-09-03T02:08:37;11.50;99.90
43627;DHT22;29217;52.586;13.442;2022-09-03T02:11:07;11.50;99.90
43627;DHT22;29217;52.586;13.442;2022-09-03T02:13:51;11.50;99.90
43627;DHT22;29217;52.586;13.442;2022-09-03T02:16:21;11.50;99.90
43627;DHT22;29217;52.586;13.442;2022-09-03T02:18:55;11.50;99.90
43627;DHT22;29217;52.586;13.442;2022-09-03T02:21:23;11.50;99.90
43627;DHT22;29217;52.586;13.442;2022-09-03T02:23:49;11.60;99.90
43627;DHT22;29217;52.586;13.442;2022-09-03T02:26:20;11.60;99.90
43627;DHT22;29217;52.586;13.442;2022-09-03T02:28:46;11.60;99.90
43627;DHT22;29217;52.586;13.442;2022-09-03T02:31:12;11.60;99.90
43627;DHT22;29217;52.586;13.442;2022-09-03T02:33:40;11.50;99.90
43627;DHT22;29217;52.586;13.442;2022-09-03T02:36:10;11.50;99.90
43627;DHT22;29217;52.586;13.442;2022-09-03T02:38:36;11.50;99.90
43627;DHT22;29217;52.586;13.442;2022-09-03T02:41:01;11.60;99.90
43627;DHT22;29217;52.586;13.442;2022-09-03T02:46:01;11.60;99.90
43627;DHT22;29217;52.586;13.442;2022-09-03T02:48:26;11.50;99.90
43627;DHT22;29217;52.586;13.442;2022-09-03T02:50:52;11.50;99.90
43627;DHT22;29217;52.586;13.442;2022-09-03T02:53:18;11.50;99.90
43627;DHT22;29217;52.586;13.442;2022-09-03T02:55:44;11.50;99.90
43627;DHT22;29217;52.586;13.442;2022-09-03T02:58:10;11.50;99.90
43627;DHT22;29217;52.586;13.442;2022-09-03T03:00:36;11.50;99.90
43627;DHT22;29217;52.586;13.442;2022-09-03T03:03:05;11.50;99.90
43627;DHT22;29217;52.586;13.442;2022-09-03T03:05:48;11.50;99.90
43627;DHT22;29217;52.586;13.442;2022-09-03T03:08:15;11.50;99.90
43627;DHT22;29217;52.586;13.442;2022-09-03T03:10:42;11.50;99.90
43627;DHT22;29217;52.586;13.442;2022-09-03T03:13:11;11.50;99.90
43627;DHT22;29217;52.586;13.442;2022-09-03T03:15:36;11.40;99.90
43627;DHT22;29217;52.586;13.442;2022-09-03T03:18:02;11.40;99.90
43627;DHT22;29217;52.586;13.442;2022-09-03T03:20:27;11.40;99.90
43627;DHT22;29217;52.586;13.442;2022-09-03T03:22:53;11.40;99.90
43627;DHT22;29217;52.586;13.442;2022-09-03T03:25:19;11.30;99.90
43627;DHT22;29217;52.586;13.442;2022-09-03T03:27:44;11.40;99.90
43627;DHT22;29217;52.586;13.442;2022-09-03T03:30:10;11.30;99.90
43627;DHT22;29217;52.586;13.442;2022-09-03T03:32:37;11.30;99.90
43627;DHT22;29217;52.586;13.442;2022-09-03T03:35:03;11.20;99.90
43627;DHT22;29217;52.586;13.442;2022-09-03T03:37:29;11.20;99.90
43627;DHT22;29217;52.586;13.442;2022-09-03T03:39:55;11.20;99.90
43627;DHT22;29217;52.586;13.442;2022-09-03T03:42:21;11.30;99.90
43627;DHT22;29217;52.586;13.442;2022-09-03T03:44:46;11.30;99.90
43627;DHT22;29217;52.586;13.442;2022-09-03T03:47:12;11.20;99.90
43627;DHT22;29217;52.586;13.442;2022-09-03T03:49:37;11.30;99.90
43627;DHT22;29217;52.586;13.442;2022-09-03T03:52:03;11.20;99.90
43627;DHT22;29217;52.586;13.442;2022-09-03T03:54:29;11.30;99.90
43627;DHT22;29217;52.586;13.442;2022-09-03T03:56:55;11.30;99.90
43627;DHT22;29217;52.586;13.442;2022-09-03T03:59:20;11.30;99.90
43627;DHT22;29217;52.586;13.442;2022-09-03T04:01:46;11.40;99.90
43627;DHT22;29217;52.586;13.442;2022-09-03T04:04:14;11.40;99.90
43627;DHT22;29217;52.586;13.442;2022-09-03T04:06:40;11.50;99.90
43627;DHT22;29217;52.586;13.442;2022-09-03T04:09:05;11.50;99.90
43627;DHT22;29217;52.586;13.442;2022-09-03T04:11:31;11.50;99.90
43627;DHT22;29217;52.586;13.442;2022-09-03T04:13:56;11.60;99.90
43627;DHT22;29217;52.586;13.442;2022-09-03T04:16:24;11.60;99.90
43627;DHT22;29217;52.586;13.442;2022-09-03T04:18:54;11.60;99.90
43627;DHT22;29217;52.586;13.442;2022-09-03T04:21:25;11.60;99.90
43627;DHT22;29217;52.586;13.442;2022-09-03T04:23:51;11.60;99.90
43627;DHT22;29217;52.586;13.442;2022-09-03T04:26:20;11.60;99.90
43627;DHT22;29217;52.586;13.442;2022-09-03T04:28:47;11.60;99.90
43627;DHT22;29217;52.586;13.442;2022-09-03T04:31:14;11.70;99.90
43627;DHT22;29217;52.586;13.442;2022-09-03T04:33:40;11.70;99.90
43627;DHT22;29217;52.586;13.442;2022-09-03T04:36:07;11.70;99.90
43627;DHT22;29217;52.586;13.442;2022-09-03T04:38:35;11.80;99.90
43627;DHT22;29217;52.586;13.442;2022-09-03T04:41:02;11.70;99.90
43627;DHT22;29217;52.586;13.442;2022-09-03T04:43:28;11.80;99.90
43627;DHT22;29217;52.586;13.442;2022-09-03T04:46:02;11.80;99.90
43627;DHT22;29217;52.586;13.442;2022-09-03T04:48:30;11.80;99.90
43627;DHT22;29217;52.586;13.442;2022-09-03T04:51:03;11.90;99.90
43627;DHT22;29217;52.586;13.442;2022-09-03T04:53:37;11.90;99.90
43627;DHT22;29217;52.586;13.442;2022-09-03T04:56:14;12.00;99.90
43627;DHT22;29217;52.586;13.442;2022-09-03T04:58:41;12.00;99.90
43627;DHT22;29217;52.586;13.442;2022-09-03T05:01:10;12.10;99.90
43627;DHT22;29217;52.586;13.442;2022-09-03T05:03:36;12.10;99.90
43627;DHT22;29217;52.586;13.442;2022-09-03T05:06:02;12.20;99.90
43627;DHT22;29217;52.586;13.442;2022-09-03T05:08:28;12.20;99.90
43627;DHT22;29217;52.586;13.442;2022-09-03T05:10:58;12.20;99.90
43627;DHT22;29217;52.586;13.442;2022-09-03T05:13:25;12.30;99.90
43627;DHT22;29217;52.586;13.442;2022-09-03T05:15:51;12.30;99.90
43627;DHT22;29217;52.586;13.442;2022-09-03T05:18:16;12.30;99.90
43627;DHT22;29217;52.586;13.442;2022-09-03T05:20:42;12.40;99.90
43627;DHT22;29217;52.586;13.442;2022-09-03T05:23:07;12.40;99.90
43627;DHT22;29217;52.586;13.442;2022-09-03T05:25:33;12.40;99.90
43627;DHT22;29217;52.586;13.442;2022-09-03T05:27:59;12.50;99.90
43627;DHT22;29217;52.586;13.442;2022-09-03T05:30:26;12.50;99.90
43627;DHT22;29217;52.586;13.442;2022-09-03T05:32:52;12.50;99.90
43627;DHT22;29217;52.586;13.442;2022-09-03T05:35:17;12.50;99.90
43627;DHT22;29217;52.586;13.442;2022-09-03T05:37:43;12.50;99.90
43627;DHT22;29217;52.586;13.442;2022-09-03T05:40:09;12.50;99.90
43627;DHT22;29217;52.586;13.442;2022-09-03T05:42:36;12.60;99.90
43627;DHT22;29217;52.586;13.442;2022-09-03T05:45:07;12.60;99.90
43627;DHT22;29217;52.586;13.442;2022-09-03T05:47:38;12.70;99.90
43627;DHT22;29217;52.586;13.442;2022-09-03T05:50:05;12.70;99.90
43627;DHT22;29217;52.586;13.442;2022-09-03T05:52:31;12.80;99.90
43627;DHT22;29217;52.586;13.442;2022-09-03T05:54:56;12.80;99.90
43627;DHT22;29217;52.586;13.442;2022-09-03T05:57:22;12.90;99.90
43627;DHT22;29217;52.586;13.442;2022-09-03T05:59:47;13.00;99.90
43627;DHT22;29217;52.586;13.442;2022-09-03T06:02:13;13.10;99.90
43627;DHT22;29217;52.586;13.442;2022-09-03T06:04:38;13.10;99.90
43627;DHT22;29217;52.586;13.442;2022-09-03T06:07:04;13.20;99.90
43627;DHT22;29217;52.586;13.442;2022-09-03T06:09:29;13.20;99.90
43627;DHT22;29217;52.586;13.442;2022-09-03T06:11:55;13.20;99.90
43627;DHT22;29217;52.586;13.442;2022-09-03T06:14:20;13.30;99.90
43627;DHT22;29217;52.586;13.442;2022-09-03T06:16:47;13.40;99.90
43627;DHT22;29217;52.586;13.442;2022-09-03T06:19:14;13.40;99.90
43627;DHT22;29217;52.586;13.442;2022-09-03T06:21:42;13.50;99.90
43627;DHT22;29217;52.586;13.442;2022-09-03T06:24:10;13.50;99.90
43627;DHT22;29217;52.586;13.442;2022-09-03T06:26:37;13.60;99.90
43627;DHT22;29217;52.586;13.442;2022-09-03T06:29:03;13.60;99.90
43627;DHT22;29217;52.586;13.442;2022-09-03T06:31:28;13.60;99.90
43627;DHT22;29217;52.586;13.442;2022-09-03T06:33:54;13.70;99.90
43627;DHT22;29217;52.586;13.442;2022-09-03T06:36:22;13.90;99.90
43627;DHT22;29217;52.586;13.442;2022-09-03T06:38:54;14.00;99.90
43627;DHT22;29217;52.586;13.442;2022-09-03T06:41:22;14.00;99.90
43627;DHT22;29217;52.586;13.442;2022-09-03T06:43:53;14.10;99.90
43627;DHT22;29217;52.586;13.442;2022-09-03T06:46:22;14.10;99.90
43627;DHT22;29217;52.586;13.442;2022-09-03T06:48:48;14.20;99.90
43627;DHT22;29217;52.586;13.442;2022-09-03T06:51:17;14.20;99.90
43627;DHT22;29217;52.586;13.442;2022-09-03T06:53:45;14.30;99.90
43627;DHT22;29217;52.586;13.442;2022-09-03T06:56:13;14.30;99.90
43627;DHT22;29217;52.586;13.442;2022-09-03T06:58:42;14.30;99.90
43627;DHT22;29217;52.586;13.442;2022-09-03T07:01:28;14.30;99.90
43627;DHT22;29217;52.586;13.442;2022-09-03T07:03:57;14.50;99.90
43627;DHT22;29217;52.586;13.442;2022-09-03T07:06:25;14.60;99.90
43627;DHT22;29217;52.586;13.442;2022-09-03T07:08:51;14.70;99.90
43627;DHT22;29217;52.586;13.442;2022-09-03T07:11:21;14.90;99.90
43627;DHT22;29217;52.586;13.442;2022-09-03T07:13:51;15.10;99.90
43627;DHT22;29217;52.586;13.442;2022-09-03T07:16:23;15.20;99.90
43627;DHT22;29217;52.586;13.442;2022-09-03T07:18:49;15.30;99.90
43627;DHT22;29217;52.586;13.442;2022-09-03T07:21:20;15.60;99.90
43627;DHT22;29217;52.586;13.442;2022-09-03T07:23:47;15.70;99.90
43627;DHT22;29217;52.586;13.442;2022-09-03T07:26:16;15.70;99.90
43627;DHT22;29217;52.586;13.442;2022-09-03T07:28:44;15.80;99.90
43627;DHT22;29217;52.586;13.442;2022-09-03T07:31:16;15.80;99.90
43627;DHT22;29217;52.586;13.442;2022-09-03T07:33:44;15.90;99.90
43627;DHT22;29217;52.586;13.442;2022-09-03T07:36:13;16.00;99.90
43627;DHT22;29217;52.586;13.442;2022-09-03T07:38:40;16.10;99.90
43627;DHT22;29217;52.586;13.442;2022-09-03T07:41:08;16.10;99.90
43627;DHT22;29217;52.586;13.442;2022-09-03T07:43:36;16.20;99.90
43627;DHT22;29217;52.586;13.442;2022-09-03T07:46:05;16.30;99.90
43627;DHT22;29217;52.586;13.442;2022-09-03T07:48:31;16.30;99.90
43627;DHT22;29217;52.586;13.442;2022-09-03T07:51:00;16.50;99.90
43627;DHT22;29217;52.586;13.442;2022-09-03T07:53:28;16.70;99.90
43627;DHT22;29217;52.586;13.442;2022-09-03T07:55:59;16.80;99.90
43627;DHT22;29217;52.586;13.442;2022-09-03T07:58:28;16.80;99.90
43627;DHT22;29217;52.586;13.442;2022-09-03T08:00:53;16.80;99.90
43627;DHT22;29217;52.586;13.442;2022-09-03T08:03:21;16.80;99.90
43627;DHT22;29217;52.586;13.442;2022-09-03T08:05:47;16.70;99.90
43627;DHT22;29217;52.586;13.442;2022-09-03T08:08:13;16.70;99.90
43627;DHT22;29217;52.586;13.442;2022-09-03T08:10:39;16.60;99.90
43627;DHT22;29217;52.586;13.442;2022-09-03T08:13:05;16.50;99.90
43627;DHT22;29217;52.586;13.442;2022-09-03T08:15:31;16.40;99.90
43627;DHT22;29217;52.586;13.442;2022-09-03T08:17:58;16.50;99.90
43627;DHT22;29217;52.586;13.442;2022-09-03T08:20:25;16.50;99.90
43627;DHT22;29217;52.586;13.442;2022-09-03T08:22:51;16.70;99.90
43627;DHT22;29217;52.586;13.442;2022-09-03T08:25:16;16.80;99.90
43627;DHT22;29217;52.586;13.442;2022-09-03T08:27:42;16.80;99.90
43627;DHT22;29217;52.586;13.442;2022-09-03T08:30:08;17.00;99.90
43627;DHT22;29217;52.586;13.442;2022-09-03T08:32:36;17.10;99.90
43627;DHT22;29217;52.586;13.442;2022-09-03T08:35:03;17.10;99.90
43627;DHT22;29217;52.586;13.442;2022-09-03T08:37:29;17.30;99.90
43627;DHT22;29217;52.586;13.442;2022-09-03T08:39:56;17.30;99.90
43627;DHT22;29217;52.586;13.442;2022-09-03T08:42:24;17.30;99.90
43627;DHT22;29217;52.586;13.442;2022-09-03T08:44:58;17.40;99.90
43627;DHT22;29217;52.586;13.442;2022-09-03T08:47:28;17.50;99.90
43627;DHT22;29217;52.586;13.442;2022-09-03T08:50:19;17.70;99.90
43627;DHT22;29217;52.586;13.442;2022-09-03T08:58:19;17.90;99.90
43627;DHT22;29217;52.586;13.442;2022-09-03T09:03:33;18.00;99.90
43627;DHT22;29217;52.586;13.442;2022-09-03T09:06:40;18.10;99.90
43627;DHT22;29217;52.586;13.442;2022-09-03T09:09:28;18.20;99.90
43627;DHT22;29217;52.586;13.442;2022-09-03T09:20:49;18.70;99.90
43627;DHT22;29217;52.586;13.442;2022-09-03T09:23:30;18.80;99.90
43627;DHT22;29217;52.586;13.442;2022-09-03T09:25:58;18.90;99.90
43627;DHT22;29217;52.586;13.442;2022-09-03T09:28:31;18.80;99.90
43627;DHT22;29217;52.586;13.442;2022-09-03T09:31:00;18.90;99.90
43627;DHT22;29217;52.586;13.442;2022-09-03T09:33:30;18.90;99.90
43627;DHT22;29217;52.586;13.442;2022-09-03T09:35:58;19.00;99.90
43627;DHT22;29217;52.586;13.442;2022-09-03T09:38:37;19.10;99.90
43627;DHT22;29217;52.586;13.442;2022-09-03T09:41:10;19.10;99.90
43627;DHT22;29217;52.586;13.442;2022-09-03T09:43:36;19.10;99.90
43627;DHT22;29217;52.586;13.442;2022-09-03T09:46:13;19.20;99.90
43627;DHT22;29217;52.586;13.442;2022-09-03T09:48:57;19.30;99.90
43627;DHT22;29217;52.586;13.442;2022-09-03T09:51:25;19.40;99.90
43627;DHT22;29217;52.586;13.442;2022-09-03T09:54:11;19.50;99.90
43627;DHT22;29217;52.586;13.442;2022-09-03T09:56:37;19.50;99.90
43627;DHT22;29217;52.586;13.442;2022-09-03T09:59:10;19.50;99.90
43627;DHT22;29217;52.586;13.442;2022-09-03T10:01:40;19.60;99.90
43627;DHT22;29217;52.586;13.442;2022-09-03T10:04:22;19.80;99.90
43627;DHT22;29217;52.586;13.442;2022-09-03T10:07:03;19.80;99.90
43627;DHT22;29217;52.586;13.442;2022-09-03T10:09:31;19.90;99.90
43627;DHT22;29217;52.586;13.442;2022-09-03T10:12:13;20.00;99.90
43627;DHT22;29217;52.586;13.442;2022-09-03T10:14:48;20.00;99.90
43627;DHT22;29217;52.586;13.442;2022-09-03T10:17:23;20.00;99.90
43627;DHT22;29217;52.586;13.442;2022-09-03T10:20:23;20.10;99.90
43627;DHT22;29217;52.586;13.442;2022-09-03T10:22:59;20.30;99.90
43627;DHT22;29217;52.586;13.442;2022-09-03T10:25:34;20.30;99.90
43627;DHT22;29217;52.586;13.442;2022-09-03T10:28:04;20.40;99.90
43627;DHT22;29217;52.586;13.442;2022-09-03T10:30:38;20.40;99.90
43627;DHT22;29217;52.586;13.442;2022-09-03T10:33:17;20.50;99.90
43627;DHT22;29217;52.586;13.442;2022-09-03T10:35:52;20.50;99.90
43627;DHT22;29217;52.586;13.442;2022-09-03T10:38:32;20.70;99.90
43627;DHT22;29217;52.586;13.442;2022-09-03T10:46:18;20.80;99.90
43627;DHT22;29217;52.586;13.442;2022-09-03T10:49:17;20.90;99.90
43627;DHT22;29217;52.586;13.442;2022-09-03T10:58:00;21.00;99.90
43627;DHT22;29217;52.586;13.442;2022-09-03T11:00:33;21.40;99.90
43627;DHT22;29217;52.586;13.442;2022-09-03T11:03:29;21.70;99.90
43627;DHT22;29217;52.586;13.442;2022-09-03T11:06:24;21.80;99.90
43627;DHT22;29217;52.586;13.442;2022-09-03T11:08:59;21.70;99.90
43627;DHT22;29217;52.586;13.442;2022-09-03T11:11:42;21.50;99.90
43627;DHT22;29217;52.586;13.442;2022-09-03T11:14:13;21.30;99.90
43627;DHT22;29217;52.586;13.442;2022-09-03T11:16:45;21.20;99.90
43627;DHT22;29217;52.586;13.442;2022-09-03T11:19:16;21.20;99.90
43627;DHT22;29217;52.586;13.442;2022-09-03T11:21:43;21.10;99.90
43627;DHT22;29217;52.586;13.442;2022-09-03T11:24:15;21.10;99.90
43627;DHT22;29217;52.586;13.442;2022-09-03T11:26:48;21.10;99.90
43627;DHT22;29217;52.586;13.442;2022-09-03T11:29:19;21.00;99.90
43627;DHT22;29217;52.586;13.442;2022-09-03T11:32:08;21.00;99.90
43627;DHT22;29217;52.586;13.442;2022-09-03T11:34:47;21.30;99.90
43627;DHT22;29217;52.586;13.442;2022-09-03T11:37:29;21.60;99.90
43627;DHT22;29217;52.586;13.442;2022-09-03T11:40:03;21.90;99.90
43627;DHT22;29217;52.586;13.442;2022-09-03T11:42:41;22.40;99.90
43627;DHT22;29217;52.586;13.442;2022-09-03T11:47:52;22.60;99.90
43627;DHT22;29217;52.586;13.442;2022-09-03T11:50:22;22.40;99.90
43627;DHT22;29217;52.586;13.442;2022-09-03T11:52:50;22.20;99.90
43627;DHT22;29217;52.586;13.442;2022-09-03T11:55:32;22.90;99.90
43627;DHT22;29217;52.586;13.442;2022-09-03T11:58:10;23.70;99.90
43627;DHT22;29217;52.586;13.442;2022-09-03T12:00:36;24.50;99.90
43627;DHT22;29217;52.586;13.442;2022-09-03T12:03:03;24.20;99.90
43627;DHT22;29217;52.586;13.442;2022-09-03T12:05:50;23.60;99.90
43627;DHT22;29217;52.586;13.442;2022-09-03T12:08:39;22.80;99.90
43627;DHT22;29217;52.586;13.442;2022-09-03T12:11:39;22.30;99.90
43627;DHT22;29217;52.586;13.442;2022-09-03T12:19:51;21.70;99.90
43627;DHT22;29217;52.586;13.442;2022-09-03T12:22:18;21.70;99.90
43627;DHT22;29217;52.586;13.442;2022-09-03T12:24:45;22.10;99.90
43627;DHT22;29217;52.586;13.442;2022-09-03T12:27:23;22.80;99.90
43627;DHT22;29217;52.586;13.442;2022-09-03T12:29:58;23.20;99.90
43627;DHT22;29217;52.586;13.442;2022-09-03T12:32:29;23.10;99.90
43627;DHT22;29217;52.586;13.442;2022-09-03T12:34:57;22.80;99.90
43627;DHT22;29217;52.586;13.442;2022-09-03T12:37:26;22.60;99.90
43627;DHT22;29217;52.586;13.442;2022-09-03T12:39:57;22.40;99.90
43627;DHT22;29217;52.586;13.442;2022-09-03T12:42:28;22.20;99.90
43627;DHT22;29217;52.586;13.442;2022-09-03T12:44:55;22.10;99.90
43627;DHT22;29217;52.586;13.442;2022-09-03T12:47:23;21.90;99.90
43627;DHT22;29217;52.586;13.442;2022-09-03T12:49:51;21.80;99.90
43627;DHT22;29217;52.586;13.442;2022-09-03T12:52:24;22.10;99.90
43627;DHT22;29217;52.586;13.442;2022-09-03T12:55:24;22.50;99.90
43627;DHT22;29217;52.586;13.442;2022-09-03T12:57:54;22.80;99.90
43627;DHT22;29217;52.586;13.442;2022-09-03T13:00:21;22.90;99.90
43627;DHT22;29217;52.586;13.442;2022-09-03T13:02:54;22.90;99.90
43627;DHT22;29217;52.586;13.442;2022-09-03T13:05:34;22.70;99.90
43627;DHT22;29217;52.586;13.442;2022-09-03T13:08:02;22.40;99.90
43627;DHT22;29217;52.586;13.442;2022-09-03T13:10:38;22.20;99.90
43627;DHT22;29217;52.586;13.442;2022-09-03T13:30:09;22.80;99.90
43627;DHT22;29217;52.586;13.442;2022-09-03T13:32:49;22.60;99.90
43627;DHT22;29217;52.586;13.442;2022-09-03T13:41:08;21.90;99.90
43627;DHT22;29217;52.586;13.442;2022-09-03T13:43:53;21.70;99.90
43627;DHT22;29217;52.586;13.442;2022-09-03T13:52:42;21.80;99.90
43627;DHT22;29217;52.586;13.442;2022-09-03T13:55:24;21.80;99.90
43627;DHT22;29217;52.586;13.442;2022-09-03T13:58:18;21.80;99.90
43627;DHT22;29217;52.586;13.442;2022-09-03T14:03:30;21.80;99.90
43627;DHT22;29217;52.586;13.442;2022-09-03T14:16:58;21.70;99.90
43627;DHT22;29217;52.586;13.442;2022-09-03T14:20:03;21.70;99.90
43627;DHT22;29217;52.586;13.442;2022-09-03T14:22:44;21.80;99.90
43627;DHT22;29217;52.586;13.442;2022-09-03T14:25:18;21.90;99.90
43627;DHT22;29217;52.586;13.442;2022-09-03T14:27:44;21.80;99.90
43627;DHT22;29217;52.586;13.442;2022-09-03T14:38:39;22.30;99.90
43627;DHT22;29217;52.586;13.442;2022-09-03T14:46:37;22.40;99.90
43627;DHT22;29217;52.586;13.442;2022-09-03T14:57:27;22.60;99.90
43627;DHT22;29217;52.586;13.442;2022-09-03T15:00:15;22.30;99.90
43627;DHT22;29217;52.586;13.442;2022-09-03T15:02:53;22.30;99.90
43627;DHT22;29217;52.586;13.442;2022-09-03T15:08:31;22.10;99.90
43627;DHT22;29217;52.586;13.442;2022-09-03T15:11:02;22.00;99.90
43627;DHT22;29217;52.586;13.442;2022-09-03T15:13:44;21.80;99.90
43627;DHT22;29217;52.586;13.442;2022-09-03T15:30:15;21.50;99.90
43627;DHT22;29217;52.586;13.442;2022-09-03T15:33:17;21.50;99.90
43627;DHT22;29217;52.586;13.442;2022-09-03T15:36:10;21.50;99.90
43627;DHT22;29217;52.586;13.442;2022-09-03T15:41:30;21.60;99.90
43627;DHT22;29217;52.586;13.442;2022-09-03T15:43:59;21.60;99.90
43627;DHT22;29217;52.586;13.442;2022-09-03T15:52:28;21.40;99.90
43627;DHT22;29217;52.586;13.442;2022-09-03T15:55:34;21.40;99.90
43627;DHT22;29217;52.586;13.442;2022-09-03T16:06:49;21.30;99.90
43627;DHT22;29217;52.586;13.442;2022-09-03T16:20:42;21.00;99.90
43627;DHT22;29217;52.586;13.442;2022-09-03T16:25:56;20.90;99.90
43627;DHT22;29217;52.586;13.442;2022-09-03T16:28:32;20.90;99.90
43627;DHT22;29217;52.586;13.442;2022-09-03T16:37:03;20.80;99.90
43627;DHT22;29217;52.586;13.442;2022-09-03T16:42:39;20.70;99.90
43627;DHT22;29217;52.586;13.442;2022-09-03T16:45:13;20.60;99.90
43627;DHT22;29217;52.586;13.442;2022-09-03T16:47:50;20.60;99.90
43627;DHT22;29217;52.586;13.442;2022-09-03T16:50:43;20.60;99.90
43627;DHT22;29217;52.586;13.442;2022-09-03T16:53:30;20.50;99.90
43627;DHT22;29217;52.586;13.442;2022-09-03T16:59:17;20.50;99.90
43627;DHT22;29217;52.586;13.442;2022-09-03T17:07:07;20.30;99.90
43627;DHT22;29217;52.586;13.442;2022-09-03T17:09:46;20.20;99.90
43627;DHT22;29217;52.586;13.442;2022-09-03T17:15:15;20.00;99.90
43627;DHT22;29217;52.586;13.442;2022-09-03T17:26:11;19.80;99.90
43627;DHT22;29217;52.586;13.442;2022-09-03T17:31:39;19.70;99.90
43627;DHT22;29217;52.586;13.442;2022-09-03T17:38:14;19.70;99.90
43627;DHT22;29217;52.586;13.442;2022-09-03T17:40:56;19.70;99.90
43627;DHT22;29217;52.586;13.442;2022-09-03T17:43:40;19.60;99.90
43627;DHT22;29217;52.586;13.442;2022-09-03T17:46:10;19.50;99.90
43627;DHT22;29217;52.586;13.442;2022-09-03T17:48:51;19.50;99.90
43627;DHT22;29217;52.586;13.442;2022-09-03T17:51:37;19.30;99.90
43627;DHT22;29217;52.586;13.442;2022-09-03T17:54:16;19.20;99.90
43627;DHT22;29217;52.586;13.442;2022-09-03T18:00:10;19.10;99.90
43627;DHT22;29217;52.586;13.442;2022-09-03T18:05:21;18.80;99.90
43627;DHT22;29217;52.586;13.442;2022-09-03T18:07:59;18.80;99.90
43627;DHT22;29217;52.586;13.442;2022-09-03T18:10:38;18.70;99.90
43627;DHT22;29217;52.586;13.442;2022-09-03T18:16:27;18.60;99.90
43627;DHT22;29217;52.586;13.442;2022-09-03T18:19:07;18.60;99.90
43627;DHT22;29217;52.586;13.442;2022-09-03T18:21:42;18.50;99.90
43627;DHT22;29217;52.586;13.442;2022-09-03T18:24:33;18.50;99.90
43627;DHT22;29217;52.586;13.442;2022-09-03T18:30:27;18.30;99.90
43627;DHT22;29217;52.586;13.442;2022-09-03T18:33:11;18.20;99.90
43627;DHT22;29217;52.586;13.442;2022-09-03T18:35:57;18.10;99.90
43627;DHT22;29217;52.586;13.442;2022-09-03T18:38:41;18.10;99.90
43627;DHT22;29217;52.586;13.442;2022-09-03T18:47:30;17.90;99.90
43627;DHT22;29217;52.586;13.442;2022-09-03T18:50:43;17.80;99.90
43627;DHT22;29217;52.586;13.442;2022-09-03T18:56:34;17.60;99.90
43627;DHT22;29217;52.586;13.442;2022-09-03T19:02:37;17.70;99.90
43627;DHT22;29217;52.586;13.442;2022-09-03T19:08:46;17.70;99.90
43627;DHT22;29217;52.586;13.442;2022-09-03T19:15:19;17.60;99.90
43627;DHT22;29217;52.586;13.442;2022-09-03T19:23:51;17.50;99.90
43627;DHT22;29217;52.586;13.442;2022-09-03T19:26:54;17.50;99.90
43627;DHT22;29217;52.586;13.442;2022-09-03T19:30:03;17.40;99.90
43627;DHT22;29217;52.586;13.442;2022-09-03T19:42:17;17.10;99.90
43627;DHT22;29217;52.586;13.442;2022-09-03T19:45:28;17.00;99.90
43627;DHT22;29217;52.586;13.442;2022-09-03T19:48:42;17.00;99.90
43627;DHT22;29217;52.586;13.442;2022-09-03T19:51:34;16.90;99.90
43627;DHT22;29217;52.586;13.442;2022-09-03T19:54:23;16.90;99.90
43627;DHT22;29217;52.586;13.442;2022-09-03T19:57:10;16.70;99.90
43627;DHT22;29217;52.586;13.442;2022-09-03T19:59:56;16.60;99.90
43627;DHT22;29217;52.586;13.442;2022-09-03T20:02:41;16.60;99.90
43627;DHT22;29217;52.586;13.442;2022-09-03T20:05:28;16.70;99.90
43627;DHT22;29217;52.586;13.442;2022-09-03T20:08:15;16.80;99.90
43627;DHT22;29217;52.586;13.442;2022-09-03T20:10:59;16.80;99.90
43627;DHT22;29217;52.586;13.442;2022-09-03T20:13:26;16.80;99.90
43627;DHT22;29217;52.586;13.442;2022-09-03T20:16:07;16.80;99.90
43627;DHT22;29217;52.586;13.442;2022-09-03T20:18:49;16.90;99.90
43627;DHT22;29217;52.586;13.442;2022-09-03T20:21:38;16.90;99.90
43627;DHT22;29217;52.586;13.442;2022-09-03T20:29:44;17.00;99.90
43627;DHT22;29217;52.586;13.442;2022-09-03T20:32:41;17.00;99.90
43627;DHT22;29217;52.586;13.442;2022-09-03T20:38:00;17.00;99.90
43627;DHT22;29217;52.586;13.442;2022-09-03T20:43:36;17.00;99.90
43627;DHT22;29217;52.586;13.442;2022-09-03T20:52:11;17.00;99.90
43627;DHT22;29217;52.586;13.442;2022-09-03T20:54:19;17.00;99.90
43627;DHT22;29217;52.586;13.442;2022-09-03T20:59:36;16.90;99.90
43627;DHT22;29217;52.586;13.442;2022-09-03T21:02:48;16.90;99.90